Time;durP1;ratioP1;P1;durP2;ratioP2;P2;SDS_P1;SDS_P2;PMS_P1;PMS_P2;Temp;Humidity;BMP_temperature;BMP_pressure;BME280_temperature;BME280_humidity;BME280_pressure;Samples;Min_cycle;Max_cycle;Signal;HPM_P1;HPM_P2
2022/10/17 00:31:51;;;;;;;14.30;11.60;;;14.70;99.90;;;;;;5569629;23;20041;-81
2022/10/17 00:50:56;;;;;;;12.00;10.68;;;14.60;99.90;;;;;;5196637;23;20057;-82
2022/10/17 00:53:39;;;;;;;22.30;14.50;;;14.50;99.90;;;;;;4975069;28;37881;-82
2022/10/17 00:56:41;;;;;;;17.13;11.77;;;14.50;99.90;;;;;;4962471;28;39861;-83
2022/10/17 01:01:52;;;;;;;14.43;9.75;;;14.40;99.90;;;;;;5979881;23;21236;-82
2022/10/17 01:04:19;;;;;;;14.10;12.15;;;14.50;99.90;;;;;;4981843;28;37157;-82
2022/10/17 01:06:45;;;;;;;20.55;14.48;;;14.50;99.90;;;;;;4993511;28;38569;-80
2022/10/17 01:09:11;;;;;;;14.43;12.93;;;14.50;99.90;;;;;;5001246;28;39282;-83
2022/10/17 01:12:00;;;;;;;16.27;13.68;;;14.60;99.90;;;;;;5007026;28;38419;-81
2022/10/17 01:14:35;;;;;;;20.67;16.00;;;14.50;99.90;;;;;;4996649;28;37202;-82
2022/10/17 01:17:10;;;;;;;13.63;11.50;;;14.50;99.90;;;;;;5001160;28;39111;-82
2022/10/17 01:19:54;;;;;;;19.35;13.75;;;14.40;99.90;;;;;;4996199;28;48626;-83
2022/10/17 01:22:20;;;;;;;21.73;12.75;;;14.40;99.90;;;;;;4990334;28;38680;-81
2022/10/17 01:24:58;;;;;;;16.08;12.38;;;14.50;99.90;;;;;;4983908;28;36643;-81
2022/10/17 01:27:52;;;;;;;19.17;15.13;;;14.40;99.90;;;;;;4983611;28;37471;-81
2022/10/17 01:30:48;;;;;;;14.88;11.85;;;14.40;99.90;;;;;;4978727;28;37306;-82
2022/10/17 01:33:45;;;;;;;16.38;13.00;;;14.40;99.90;;;;;;4992123;28;38265;-81
2022/10/17 01:36:36;;;;;;;23.50;17.25;;;14.40;99.90;;;;;;4988674;28;37758;-81
2022/10/17 01:39:15;;;;;;;24.50;15.07;;;14.40;99.90;;;;;;4980090;28;37857;-81
2022/10/17 01:41:50;;;;;;;15.07;12.75;;;14.40;99.90;;;;;;4995632;28;47214;-83
2022/10/17 01:44:43;;;;;;;19.75;15.23;;;14.40;99.90;;;;;;4977914;28;36766;-80
2022/10/17 01:47:16;;;;;;;20.05;16.85;;;14.50;99.90;;;;;;4979727;28;36373;-83
2022/10/17 01:49:47;;;;;;;;;;;14.50;99.90;;;;;;4977970;28;37159;-81
2022/10/17 01:52:22;;;;;;;20.08;15.70;;;14.50;99.90;;;;;;4994360;28;38514;-81
2022/10/17 01:55:20;;;;;;;15.90;13.63;;;14.50;99.90;;;;;;4979928;28;36846;-82
2022/10/17 01:57:58;;;;;;;24.77;17.13;;;14.50;99.90;;;;;;4985285;28;48387;-82
2022/10/17 02:00:28;;;;;;;16.85;13.80;;;14.50;99.90;;;;;;4984664;28;37937;-82
2022/10/17 02:02:59;;;;;;;18.00;13.57;;;14.60;99.90;;;;;;4983111;28;37201;-83
2022/10/17 02:05:32;;;;;;;21.80;15.57;;;14.60;99.90;;;;;;4981062;28;37026;-82
2022/10/17 02:07:58;;;;;;;25.88;17.90;;;14.60;99.90;;;;;;4982298;28;36220;-82
2022/10/17 02:10:43;;;;;;;17.45;13.93;;;14.60;99.90;;;;;;4983021;28;39122;-82
2022/10/17 02:13:34;;;;;;;18.33;13.40;;;14.60;99.90;;;;;;4974388;28;37184;-82
2022/10/17 02:16:37;;;;;;;16.98;13.20;;;14.50;99.90;;;;;;4999761;28;37812;-82
2022/10/17 02:19:29;;;;;;;17.42;14.60;;;14.60;99.90;;;;;;5003891;28;48771;-80
2022/10/17 02:22:28;;;;;;;20.10;15.88;;;14.50;99.90;;;;;;4979212;28;38688;-83
2022/10/17 02:25:08;;;;;;;20.35;13.63;;;14.60;99.90;;;;;;4976887;28;47355;-82
2022/10/17 02:27:51;;;;;;;18.90;14.25;;;14.60;99.90;;;;;;4981716;28;47334;-82
2022/10/17 02:30:26;;;;;;;23.10;16.15;;;14.60;99.90;;;;;;4974753;28;36792;-81
2022/10/17 02:33:02;;;;;;;19.20;15.02;;;14.60;99.90;;;;;;4979780;28;37872;-79
2022/10/17 02:35:33;;;;;;;20.00;12.65;;;14.70;99.90;;;;;;4979572;28;47367;-80
2022/10/17 02:38:01;;;;;;;21.77;16.17;;;14.70;99.90;;;;;;4980197;28;39089;-81
2022/10/17 02:40:29;;;;;;;16.70;12.95;;;14.70;99.90;;;;;;4995340;28;37609;-81
2022/10/17 02:42:58;;;;;;;17.35;12.65;;;14.80;99.90;;;;;;4995018;28;38776;-82
2022/10/17 02:45:27;;;;;;;26.77;17.02;;;14.70;99.90;;;;;;4996394;28;38349;-82
2022/10/17 02:48:02;;;;;;;18.70;12.50;;;14.80;99.90;;;;;;4980892;28;37911;-83
2022/10/17 02:50:47;;;;;;;16.40;13.27;;;14.80;99.90;;;;;;4995767;28;47406;-82
2022/10/17 02:53:33;;;;;;;20.30;14.13;;;14.80;99.90;;;;;;4999214;28;39428;-83
2022/10/17 02:56:05;;;;;;;17.30;13.20;;;14.90;99.90;;;;;;4980180;28;39145;-83
2022/10/17 02:58:32;;;;;;;15.30;13.70;;;14.90;99.90;;;;;;4982595;28;47136;-82
2022/10/17 03:00:59;;;;;;;25.95;16.13;;;14.90;99.90;;;;;;4980389;28;36643;-84
2022/10/17 03:03:30;;;;;;;17.10;12.85;;;15.10;99.90;;;;;;4977397;28;39078;-82
2022/10/17 03:05:56;;;;;;;17.95;14.32;;;15.00;99.90;;;;;;4981680;28;38618;-82
2022/10/17 03:08:23;;;;;;;15.98;12.88;;;15.10;99.90;;;;;;4978145;28;37157;-81
2022/10/17 03:10:50;;;;;;;13.95;12.23;;;15.10;99.90;;;;;;4996948;28;37618;-83
2022/10/17 03:13:16;;;;;;;20.38;14.55;;;15.10;99.90;;;;;;4981647;28;37654;-83
2022/10/17 03:15:42;;;;;;;20.20;12.65;;;15.20;99.90;;;;;;4997459;28;38437;-83
2022/10/17 03:18:08;;;;;;;15.88;12.77;;;15.20;99.90;;;;;;4987061;28;37940;-81
2022/10/17 03:20:35;;;;;;;17.58;15.15;;;15.20;99.90;;;;;;4998753;28;37430;-83
2022/10/17 03:23:01;;;;;;;20.80;15.38;;;15.20;99.90;;;;;;4994865;28;39602;-79
2022/10/17 03:25:27;;;;;;;18.40;13.45;;;15.20;99.90;;;;;;4980001;28;37145;-83
2022/10/17 03:27:54;;;;;;;16.60;11.85;;;15.20;99.90;;;;;;4997083;28;37871;-83
2022/10/17 03:30:20;;;;;;;15.27;12.05;;;15.20;99.90;;;;;;5001783;28;37059;-83
2022/10/17 03:32:46;;;;;;;17.35;13.82;;;15.20;99.90;;;;;;4979788;28;38262;-82
2022/10/17 03:35:12;;;;;;;13.30;11.90;;;15.20;99.90;;;;;;4979493;28;38530;-81
2022/10/17 03:37:41;;;;;;;16.58;12.88;;;15.20;99.90;;;;;;4983212;28;35789;-82
2022/10/17 03:40:07;;;;;;;19.60;12.88;;;15.20;99.90;;;;;;4982749;28;37741;-80
2022/10/17 03:42:33;;;;;;;18.38;12.13;;;15.20;99.90;;;;;;4974070;28;37964;-81
2022/10/17 03:44:59;;;;;;;21.23;12.85;;;15.30;99.90;;;;;;4974766;28;37221;-81
2022/10/17 03:47:27;;;;;;;22.00;15.35;;;15.30;99.90;;;;;;4978503;28;36926;-83
2022/10/17 03:49:53;;;;;;;15.00;12.63;;;15.30;99.90;;;;;;4981037;28;35081;-81
2022/10/17 03:52:19;;;;;;;17.75;12.63;;;15.30;99.90;;;;;;4979517;28;38776;-79
2022/10/17 03:54:45;;;;;;;14.88;11.95;;;15.30;99.90;;;;;;5004568;28;38554;-83
2022/10/17 03:57:11;;;;;;;16.42;12.35;;;15.40;99.90;;;;;;5001335;28;37833;-83
2022/10/17 03:59:38;;;;;;;20.02;14.18;;;15.30;99.90;;;;;;4988916;28;36859;-81
2022/10/17 04:02:04;;;;;;;19.30;12.98;;;15.30;99.90;;;;;;4977842;28;39286;-81
2022/10/17 04:04:30;;;;;;;16.65;13.80;;;15.40;99.90;;;;;;4984631;28;38587;-80
2022/10/17 04:06:56;;;;;;;21.05;14.07;;;15.30;99.90;;;;;;4981600;28;36068;-81
2022/10/17 04:09:22;;;;;;;20.23;15.77;;;15.40;99.90;;;;;;4979783;28;38246;-81
2022/10/17 04:11:48;;;;;;;20.98;12.88;;;15.40;99.90;;;;;;4963015;28;37869;-80
2022/10/17 04:14:14;;;;;;;14.70;11.30;;;15.40;99.90;;;;;;4961741;28;37391;-83
2022/10/17 04:16:40;;;;;;;14.18;12.68;;;15.40;99.90;;;;;;4974986;28;39258;-83
2022/10/17 04:19:06;;;;;;;15.48;12.65;;;15.30;99.90;;;;;;4959406;28;36552;-81
2022/10/17 04:21:32;;;;;;;13.63;12.05;;;15.40;99.90;;;;;;4959319;28;37716;-80
2022/10/17 04:24:00;;;;;;;20.00;12.75;;;15.50;99.90;;;;;;4961419;28;38437;-83
2022/10/17 04:26:26;;;;;;;16.15;11.55;;;15.40;99.90;;;;;;4976801;28;38140;-83
2022/10/17 04:28:52;;;;;;;18.27;12.40;;;15.50;99.90;;;;;;4962573;28;36207;-83
2022/10/17 04:31:18;;;;;;;14.60;11.98;;;15.50;99.90;;;;;;4965153;28;38163;-81
2022/10/17 04:33:49;;;;;;;16.20;11.35;;;15.50;99.90;;;;;;4980116;28;39425;-84
2022/10/17 04:36:17;;;;;;;16.05;11.77;;;15.50;99.90;;;;;;4962283;28;36879;-84
2022/10/17 04:38:44;;;;;;;14.98;12.40;;;15.50;99.90;;;;;;4951823;28;36996;-80
2022/10/17 04:41:15;;;;;;;15.32;12.80;;;15.50;99.90;;;;;;4956122;28;37713;-83
2022/10/17 04:43:41;;;;;;;18.10;13.00;;;15.50;99.90;;;;;;4961730;28;37865;-83
2022/10/17 04:46:10;;;;;;;16.10;12.93;;;15.50;99.90;;;;;;4978345;28;38116;-84
2022/10/17 04:48:37;;;;;;;22.45;13.05;;;15.50;99.90;;;;;;4966432;28;36605;-85
2022/10/17 04:51:10;;;;;;;14.88;11.52;;;15.50;99.90;;;;;;4958374;28;38952;-85
2022/10/17 04:53:37;;;;;;;19.70;12.60;;;15.50;99.90;;;;;;4961557;28;47020;-84
2022/10/17 04:56:08;;;;;;;14.07;11.27;;;15.60;99.90;;;;;;4957101;28;38705;-84
2022/10/17 04:58:35;;;;;;;13.10;11.30;;;15.60;99.90;;;;;;4961436;28;47276;-86
2022/10/17 05:01:06;;;;;;;12.95;10.73;;;15.60;99.90;;;;;;4961344;28;37468;-84
2022/10/17 05:03:33;;;;;;;12.52;10.38;;;15.70;99.90;;;;;;4975952;28;47259;-85
2022/10/17 05:06:08;;;;;;;14.40;11.27;;;15.70;99.90;;;;;;5000198;28;39156;-82
2022/10/17 05:08:35;;;;;;;19.50;11.30;;;15.70;99.90;;;;;;4977555;28;47281;-85
2022/10/17 05:11:37;;;;;;;14.32;10.40;;;15.80;99.90;;;;;;4971886;28;39037;-84
2022/10/17 05:14:03;;;;;;;14.88;10.90;;;15.80;99.90;;;;;;4989861;28;48427;-84
2022/10/17 05:16:30;;;;;;;17.05;11.85;;;15.80;99.90;;;;;;4979294;28;37030;-87
2022/10/17 05:18:57;;;;;;;11.95;9.63;;;15.80;99.90;;;;;;4977958;28;37625;-84
2022/10/17 05:21:25;;;;;;;15.18;10.43;;;15.90;99.90;;;;;;4982265;28;37798;-85
2022/10/17 05:23:52;;;;;;;18.80;11.07;;;15.90;99.90;;;;;;4978992;28;37778;-85
2022/10/17 05:26:19;;;;;;;11.93;9.48;;;16.00;99.90;;;;;;4997418;28;37771;-84
2022/10/17 05:28:45;;;;;;;15.35;10.27;;;16.00;99.90;;;;;;4982509;28;36335;-84
2022/10/17 05:31:12;;;;;;;12.23;10.00;;;16.00;99.90;;;;;;4980898;28;38265;-86
2022/10/17 05:33:38;;;;;;;13.55;9.18;;;16.10;99.90;;;;;;4978340;28;37294;-80
2022/10/17 05:36:06;;;;;;;15.95;10.25;;;16.10;99.90;;;;;;4973067;28;38409;-83
2022/10/17 05:38:33;;;;;;;12.20;9.88;;;16.20;99.90;;;;;;4996129;28;36556;-85
2022/10/17 05:41:00;;;;;;;14.52;11.05;;;16.20;99.90;;;;;;4978817;28;39164;-85
2022/10/17 05:43:27;;;;;;;12.68;9.00;;;16.30;99.90;;;;;;4978919;28;38577;-84
2022/10/17 05:45:54;;;;;;;11.85;9.45;;;16.40;99.90;;;;;;4942508;28;36498;-87
2022/10/17 05:48:21;;;;;;;10.05;8.68;;;16.40;99.90;;;;;;4970886;28;36486;-79
2022/10/17 05:50:48;;;;;;;15.73;9.52;;;16.40;99.90;;;;;;4973600;28;37006;-87
2022/10/17 05:53:15;;;;;;;12.63;8.45;;;16.50;99.90;;;;;;4999683;28;38457;-84
2022/10/17 05:55:41;;;;;;;12.82;9.07;;;16.50;99.90;;;;;;4997656;28;38491;-84
2022/10/17 05:58:07;;;;;;;12.43;8.88;;;16.50;99.90;;;;;;4987273;28;36846;-84
2022/10/17 06:00:33;;;;;;;13.07;8.18;;;16.60;99.90;;;;;;4972825;28;37972;-83
2022/10/17 06:02:59;;;;;;;11.02;8.30;;;16.60;99.90;;;;;;4992769;28;38356;-85
2022/10/17 06:05:26;;;;;;;11.50;8.48;;;16.60;99.90;;;;;;4976736;28;37210;-81
2022/10/17 06:07:52;;;;;;;12.90;8.82;;;16.60;99.90;;;;;;4999006;28;36964;-84
2022/10/17 06:10:18;;;;;;;12.27;8.15;;;16.70;99.90;;;;;;4972937;28;39103;-83
2022/10/17 06:12:45;;;;;;;12.85;9.52;;;16.60;99.90;;;;;;4973636;28;38172;-84
2022/10/17 06:15:11;;;;;;;9.48;8.45;;;16.60;99.90;;;;;;4977401;28;36762;-82
2022/10/17 06:17:37;;;;;;;16.23;9.32;;;16.60;99.90;;;;;;4992837;28;37519;-84
2022/10/17 06:20:04;;;;;;;13.48;8.75;;;16.60;99.90;;;;;;4975384;28;39029;-84
2022/10/17 06:22:30;;;;;;;10.90;8.90;;;16.60;99.90;;;;;;4972745;28;47123;-83
2022/10/17 06:24:56;;;;;;;12.85;8.77;;;16.60;99.90;;;;;;4975274;28;37202;-85
2022/10/17 06:27:23;;;;;;;14.95;8.30;;;16.60;99.90;;;;;;4972747;28;35528;-83
2022/10/17 06:29:50;;;;;;;13.30;9.27;;;16.60;99.90;;;;;;4978843;28;41367;-83
2022/10/17 06:32:16;;;;;;;10.18;8.75;;;16.60;99.90;;;;;;4996893;28;39274;-85
2022/10/17 06:34:42;;;;;;;13.00;9.27;;;16.60;99.90;;;;;;4976384;28;36754;-82
2022/10/17 06:37:08;;;;;;;10.68;8.18;;;16.60;99.90;;;;;;4973880;28;36193;-83
2022/10/17 06:39:34;;;;;;;11.35;8.05;;;16.60;99.90;;;;;;4990632;28;39146;-83
2022/10/17 06:42:02;;;;;;;15.55;8.75;;;16.60;99.90;;;;;;4971428;28;37501;-83
2022/10/17 06:44:30;;;;;;;11.20;8.73;;;16.60;99.90;;;;;;4989807;28;49463;-83
2022/10/17 06:46:57;;;;;;;10.65;8.05;;;16.70;99.90;;;;;;4974334;28;36852;-83
2022/10/17 06:49:24;;;;;;;11.77;9.13;;;16.70;99.90;;;;;;4973688;28;37422;-86
2022/10/17 06:51:50;;;;;;;14.40;8.93;;;16.80;99.90;;;;;;4971574;28;41855;-84
2022/10/17 06:54:16;;;;;;;11.85;9.25;;;16.80;99.90;;;;;;4989432;28;38148;-85
2022/10/17 06:56:42;;;;;;;12.23;9.10;;;16.80;99.90;;;;;;4971073;28;36173;-84
2022/10/17 06:59:09;;;;;;;11.82;8.70;;;16.80;99.90;;;;;;4976167;28;37758;-85
2022/10/17 07:01:35;;;;;;;13.63;9.57;;;16.80;99.90;;;;;;4989849;28;38467;-83
2022/10/17 07:04:02;;;;;;;18.92;9.60;;;16.80;99.90;;;;;;4986516;28;38747;-82
2022/10/17 07:06:28;;;;;;;14.73;9.70;;;16.80;99.90;;;;;;4975532;28;47091;-81
2022/10/17 07:08:55;;;;;;;13.15;8.85;;;16.90;99.90;;;;;;4986184;28;38673;-85
2022/10/17 07:11:22;;;;;;;13.75;8.75;;;16.80;99.90;;;;;;4975383;28;40561;-85
2022/10/17 07:13:48;;;;;;;11.75;8.50;;;16.80;99.90;;;;;;4973797;28;38924;-82
2022/10/17 07:16:15;;;;;;;14.05;9.10;;;16.70;99.90;;;;;;4995305;28;37053;-84
2022/10/17 07:18:41;;;;;;;13.52;9.52;;;16.70;99.90;;;;;;4974076;28;37468;-84
2022/10/17 07:21:08;;;;;;;15.77;10.48;;;16.60;99.90;;;;;;4991697;28;38409;-84
2022/10/17 07:23:36;;;;;;;19.88;10.38;;;16.60;99.90;;;;;;4990983;28;38778;-85
2022/10/17 07:26:08;;;;;;;13.38;9.77;;;16.60;99.90;;;;;;4974641;28;37624;-84
2022/10/17 07:28:35;;;;;;;12.50;9.52;;;16.70;99.90;;;;;;4972057;28;46940;-85
2022/10/17 07:31:07;;;;;;;12.20;9.55;;;16.70;99.90;;;;;;4979011;28;38231;-83
2022/10/17 07:33:33;;;;;;;17.63;10.68;;;16.70;99.90;;;;;;4969445;28;46586;-84
2022/10/17 07:36:00;;;;;;;18.48;10.52;;;16.90;99.90;;;;;;4977850;28;36397;-85
2022/10/17 07:38:27;;;;;;;18.63;12.65;;;16.90;99.90;;;;;;4971952;28;37437;-83
2022/10/17 07:40:58;;;;;;;22.02;12.13;;;16.90;99.90;;;;;;4970208;28;37454;-83
2022/10/17 07:43:25;;;;;;;12.73;10.52;;;16.90;99.90;;;;;;4989756;28;39977;-83
2022/10/17 07:45:52;;;;;;;18.90;10.52;;;16.90;99.90;;;;;;4979649;28;37542;-86
2022/10/17 07:48:19;;;;;;;18.27;11.30;;;16.90;99.90;;;;;;4977504;28;37707;-86
2022/10/17 07:50:45;;;;;;;16.33;11.27;;;16.90;99.90;;;;;;4948467;28;40611;-85
2022/10/17 07:53:11;;;;;;;18.70;12.60;;;16.90;99.90;;;;;;4965891;28;36825;-81
2022/10/17 07:55:38;;;;;;;15.88;11.75;;;16.80;99.90;;;;;;4983962;28;37333;-85
2022/10/17 07:58:05;;;;;;;14.98;11.73;;;16.80;99.90;;;;;;4964049;28;37827;-84
2022/10/17 08:00:31;;;;;;;16.73;11.50;;;16.80;99.90;;;;;;4966800;28;37171;-85
2022/10/17 08:02:57;;;;;;;16.08;11.73;;;16.80;99.90;;;;;;4958614;28;36938;-81
2022/10/17 08:05:23;;;;;;;19.10;11.90;;;16.80;99.90;;;;;;4961801;28;35842;-82
2022/10/17 08:07:49;;;;;;;15.45;10.52;;;16.80;99.90;;;;;;4967918;28;37859;-81
2022/10/17 08:10:16;;;;;;;19.27;11.68;;;16.80;99.90;;;;;;4987140;28;39736;-83
2022/10/17 08:12:42;;;;;;;16.98;11.95;;;16.80;99.90;;;;;;4995389;28;38720;-85
2022/10/17 08:15:09;;;;;;;14.55;10.35;;;16.80;99.90;;;;;;4994416;28;37333;-82
2022/10/17 08:17:36;;;;;;;16.40;10.52;;;16.70;99.90;;;;;;4972951;28;37995;-79
2022/10/17 08:20:04;;;;;;;20.02;11.30;;;16.80;99.90;;;;;;4971940;28;37556;-85
2022/10/17 08:22:31;;;;;;;18.38;11.68;;;16.80;99.90;;;;;;4973022;28;47002;-79
2022/10/17 08:24:57;;;;;;;18.73;12.85;;;16.80;99.90;;;;;;4972898;28;36077;-84
2022/10/17 08:27:24;;;;;;;15.60;11.32;;;16.80;99.90;;;;;;4990163;28;38502;-79
2022/10/17 08:29:53;;;;;;;13.38;10.63;;;16.80;99.90;;;;;;4974781;28;38457;-79
2022/10/17 08:32:23;;;;;;;23.13;13.48;;;16.70;99.90;;;;;;4973425;28;37050;-78
2022/10/17 08:34:49;;;;;;;20.95;12.50;;;16.70;99.90;;;;;;4990934;28;38182;-79
2022/10/17 08:37:15;;;;;;;16.77;11.10;;;16.70;99.90;;;;;;4973927;28;37490;-81
2022/10/17 08:39:42;;;;;;;17.38;11.68;;;16.80;99.90;;;;;;4972899;28;37213;-84
2022/10/17 08:42:32;;;;;;;13.68;10.25;;;16.80;99.90;;;;;;4976223;28;36737;-86
2022/10/17 08:45:28;;;;;;;15.63;11.95;;;16.70;99.90;;;;;;4994016;28;37437;-86
2022/10/17 08:48:00;;;;;;;12.88;9.82;;;16.80;99.90;;;;;;4969462;28;47446;-87
2022/10/17 08:50:41;;;;;;;17.65;11.57;;;16.70;99.90;;;;;;4969944;28;38398;-87
2022/10/17 08:53:22;;;;;;;16.13;10.45;;;16.70;99.90;;;;;;4967322;28;39381;-87
2022/10/17 08:55:50;;;;;;;22.10;12.73;;;16.70;99.90;;;;;;4974282;28;36658;-78
2022/10/17 08:58:25;;;;;;;13.63;11.40;;;16.70;99.90;;;;;;4972321;28;37744;-79
2022/10/17 09:01:06;;;;;;;18.50;11.95;;;16.70;99.90;;;;;;4973818;28;40256;-83
2022/10/17 09:03:44;;;;;;;18.63;12.57;;;16.70;99.90;;;;;;4995584;28;48479;-91
2022/10/17 09:06:35;;;;;;;18.27;11.77;;;16.80;99.90;;;;;;4976752;28;36708;-78
2022/10/17 09:09:19;;;;;;;16.40;11.88;;;16.80;99.90;;;;;;4976399;28;38735;-83
2022/10/17 09:12:13;;;;;;;16.77;12.45;;;16.90;99.90;;;;;;4973325;28;47565;-78
2022/10/17 09:15:07;;;;;;;23.05;13.40;;;16.90;99.90;;;;;;4996002;28;47922;-80
2022/10/17 09:17:33;;;;;;;16.30;9.95;;;17.00;99.90;;;;;;4997521;28;48789;-80
2022/10/17 09:20:04;;;;;;;15.93;9.80;;;16.90;99.90;;;;;;4976970;28;37937;-81
2022/10/17 09:22:50;;;;;;;13.05;9.27;;;16.90;99.90;;;;;;4977177;28;46975;-84
2022/10/17 09:25:18;;;;;;;18.58;12.15;;;16.90;99.90;;;;;;4980109;28;37925;-81
2022/10/17 09:28:13;;;;;;;15.60;10.30;;;17.00;99.90;;;;;;4994670;28;38025;-83
2022/10/17 09:30:48;;;;;;;22.83;11.75;;;17.00;99.90;;;;;;4975457;28;47221;-81
2022/10/17 09:33:15;;;;;;;13.45;9.80;;;17.00;99.90;;;;;;4980381;28;37030;-83
2022/10/17 09:35:42;;;;;;;14.88;10.60;;;17.00;99.90;;;;;;4994732;28;39850;-79
2022/10/17 09:38:18;;;;;;;14.70;11.40;;;17.00;99.90;;;;;;4980866;28;36229;-82
2022/10/17 09:40:50;;;;;;;14.13;9.35;;;17.00;99.90;;;;;;4977490;28;37993;-83
2022/10/17 09:43:16;;;;;;;15.85;10.25;;;17.00;99.90;;;;;;4978594;28;37875;-80
2022/10/17 09:46:11;;;;;;;13.35;9.65;;;16.90;99.90;;;;;;4977790;28;39812;-83
2022/10/17 09:48:44;;;;;;;17.40;9.50;;;16.90;99.90;;;;;;4973271;28;47115;-79
2022/10/17 09:51:10;;;;;;;;;;;16.90;99.90;;;;;;4982338;28;37994;-78
2022/10/17 09:53:39;;;;;;;14.32;9.10;;;16.90;99.90;;;;;;4979850;28;37633;-82
2022/10/17 09:56:14;;;;;;;13.15;8.57;;;16.80;99.90;;;;;;4981652;28;38425;-80
2022/10/17 09:58:47;;;;;;;19.40;10.25;;;16.90;99.90;;;;;;4995963;28;38252;-83
2022/10/17 10:01:27;;;;;;;12.43;8.23;;;16.80;99.90;;;;;;4977550;28;38835;-79
2022/10/17 10:04:15;;;;;;;16.17;12.02;;;16.80;99.90;;;;;;4981871;28;37534;-84
2022/10/17 10:07:01;;;;;;;14.18;10.15;;;16.80;99.90;;;;;;4977378;28;47253;-83
2022/10/17 10:09:32;;;;;;;15.85;11.15;;;16.80;99.90;;;;;;4976327;28;47416;-82
2022/10/17 10:12:04;;;;;;;12.10;8.38;;;16.80;99.90;;;;;;4981237;28;39107;-84
2022/10/17 10:14:32;;;;;;;10.57;7.70;;;16.70;99.90;;;;;;4976455;28;46984;-81
2022/10/17 10:16:59;;;;;;;9.18;6.40;;;16.70;99.90;;;;;;4974954;28;37653;-83
2022/10/17 10:19:32;;;;;;;9.38;6.63;;;16.60;99.90;;;;;;4976141;28;36399;-82
2022/10/17 10:21:59;;;;;;;10.73;6.97;;;16.60;99.90;;;;;;4975359;28;38036;-83
2022/10/17 10:24:26;;;;;;;7.97;6.63;;;16.60;99.90;;;;;;4995645;28;37502;-82
2022/10/17 10:26:55;;;;;;;12.07;8.90;;;16.60;99.90;;;;;;4997394;28;38083;-83
2022/10/17 10:29:43;;;;;;;11.73;6.85;;;16.70;99.90;;;;;;4976621;28;36130;-86
2022/10/17 10:32:11;;;;;;;8.82;7.28;;;16.70;99.90;;;;;;5002284;28;38951;-85
2022/10/17 10:34:45;;;;;;;10.38;7.75;;;16.70;99.90;;;;;;4975569;28;37501;-85
2022/10/17 10:37:28;;;;;;;8.45;7.50;;;16.70;99.90;;;;;;4978056;28;36856;-85
2022/10/17 10:40:17;;;;;;;11.93;6.50;;;16.70;99.90;;;;;;4982262;28;37080;-86
2022/10/17 10:42:49;;;;;;;11.32;7.57;;;16.60;99.90;;;;;;4981905;28;46420;-86
2022/10/17 10:45:18;;;;;;;8.25;6.38;;;16.60;99.90;;;;;;4977890;28;37523;-82
2022/10/17 10:47:53;;;;;;;8.50;6.07;;;16.60;99.90;;;;;;4982948;28;38378;-85
2022/10/17 10:50:19;;;;;;;7.93;6.00;;;16.70;99.90;;;;;;4972969;28;35964;-84
2022/10/17 10:52:54;;;;;;;8.02;6.30;;;16.70;99.90;;;;;;4976386;28;37743;-85
2022/10/17 10:55:33;;;;;;;8.93;6.32;;;16.70;99.90;;;;;;4973427;28;38409;-84
2022/10/17 10:58:20;;;;;;;9.25;5.82;;;16.70;99.90;;;;;;4998451;28;38623;-84
2022/10/17 11:00:48;;;;;;;12.30;6.68;;;16.70;99.90;;;;;;4972676;28;47141;-83
2022/10/17 11:03:25;;;;;;;10.73;5.72;;;16.80;99.90;;;;;;4988237;28;38819;-84
2022/10/17 11:06:26;;;;;;;9.50;5.50;;;16.80;99.90;;;;;;4975362;28;38115;-82
2022/10/17 11:09:33;;;;;;;6.45;5.20;;;16.70;99.90;;;;;;4921188;28;47448;-83
2022/10/17 11:12:26;;;;;;;7.10;5.50;;;16.70;99.90;;;;;;4981943;28;48233;-90
2022/10/17 11:15:29;;;;;;;8.57;4.80;;;16.80;99.90;;;;;;4972018;28;47193;-82
2022/10/17 11:18:25;;;;;;;8.23;5.45;;;16.80;99.90;;;;;;4975689;28;47495;-85
2022/10/17 11:21:22;;;;;;;7.80;5.03;;;16.90;99.90;;;;;;4970134;28;48170;-83
2022/10/17 11:24:12;;;;;;;10.95;4.95;;;16.90;99.90;;;;;;4993289;28;48318;-79
2022/10/17 11:26:50;;;;;;;7.03;5.28;;;16.90;99.90;;;;;;4989520;28;48374;-84
2022/10/17 11:29:16;;;;;;;7.28;4.88;;;16.90;99.90;;;;;;4971660;28;37441;-83
2022/10/17 11:31:49;;;;;;;7.78;4.95;;;16.90;99.90;;;;;;4978882;28;38154;-81
2022/10/17 11:34:26;;;;;;;7.20;4.70;;;17.00;99.90;;;;;;4976848;28;35838;-81
2022/10/17 11:36:58;;;;;;;7.30;4.55;;;16.90;99.90;;;;;;4978961;28;39184;-84
2022/10/17 11:39:38;;;;;;;6.20;4.72;;;17.00;99.90;;;;;;4971041;28;37395;-81
2022/10/17 11:42:13;;;;;;;5.53;4.32;;;17.00;99.90;;;;;;4975655;28;38261;-80
2022/10/17 11:44:41;;;;;;;6.07;4.30;;;17.20;99.90;;;;;;4976169;28;36902;-84
2022/10/17 11:47:25;;;;;;;6.40;4.65;;;17.30;99.90;;;;;;4975335;28;38163;-83
2022/10/17 11:49:59;;;;;;;4.93;4.43;;;17.50;99.90;;;;;;4974756;28;37421;-84
2022/10/17 11:52:45;;;;;;;9.27;4.78;;;17.50;99.90;;;;;;4987543;28;38802;-84
2022/10/17 11:55:12;;;;;;;5.93;4.30;;;17.50;99.90;;;;;;4972213;28;36021;-83
2022/10/17 11:58:01;;;;;;;4.38;3.97;;;17.50;99.90;;;;;;4977600;28;39977;-84
2022/10/17 12:00:39;;;;;;;8.15;4.13;;;17.70;99.90;;;;;;4973443;28;37595;-85
2022/10/17 12:03:29;;;;;;;5.93;4.68;;;17.80;99.90;;;;;;4972969;28;37073;-84
2022/10/17 12:06:11;;;;;;;8.82;4.82;;;17.80;99.90;;;;;;4968662;28;36168;-82
2022/10/17 12:09:00;;;;;;;6.83;4.83;;;17.90;99.90;;;;;;4977696;28;46502;-84
2022/10/17 12:11:40;;;;;;;5.45;4.43;;;17.80;99.90;;;;;;4965919;28;37462;-82
2022/10/17 12:14:32;;;;;;;7.70;5.18;;;17.90;99.90;;;;;;4994664;28;39953;-84
2022/10/17 12:17:00;;;;;;;5.53;4.60;;;17.90;99.90;;;;;;4971641;28;36534;-84
2022/10/17 12:19:44;;;;;;;8.60;5.75;;;18.10;99.90;;;;;;4972806;28;38977;-83
2022/10/17 12:22:20;;;;;;;5.20;4.70;;;18.20;99.90;;;;;;4976823;28;38119;-83
2022/10/17 12:24:55;;;;;;;9.95;5.60;;;18.30;99.90;;;;;;4974591;28;37359;-85
2022/10/17 12:27:44;;;;;;;8.75;5.28;;;18.40;99.90;;;;;;4972080;28;36240;-79
2022/10/17 12:30:27;;;;;;;10.20;5.70;;;18.30;99.90;;;;;;4975847;28;38765;-80
2022/10/17 12:33:20;;;;;;;;;;;18.20;99.90;;;;;;4983689;28;38798;-81
2022/10/17 12:35:50;;;;;;;7.68;5.60;;;18.10;99.90;;;;;;4988846;28;49198;-81
2022/10/17 12:38:16;;;;;;;7.35;5.63;;;18.10;99.90;;;;;;4992860;28;36079;-80
2022/10/17 12:40:42;;;;;;;6.57;5.45;;;18.00;99.90;;;;;;4987061;28;38781;-80
2022/10/17 12:43:14;;;;;;;9.88;7.03;;;18.00;99.90;;;;;;4974357;28;36987;-81
2022/10/17 12:45:54;;;;;;;8.55;6.13;;;18.00;99.90;;;;;;4976385;28;40238;-80
2022/10/17 12:48:44;;;;;;;8.68;6.50;;;18.10;99.90;;;;;;4971318;28;35989;-81
2022/10/17 12:51:20;;;;;;;9.48;6.28;;;18.00;99.90;;;;;;4968117;28;39026;-80
2022/10/17 12:53:57;;;;;;;9.93;6.68;;;17.90;99.90;;;;;;4973272;28;37324;-80
2022/10/17 12:56:58;;;;;;;8.32;5.63;;;17.90;99.90;;;;;;4973588;28;37238;-81
2022/10/17 12:59:27;;;;;;;8.77;6.15;;;17.90;99.90;;;;;;4877835;29;36033;-80
2022/10/17 13:01:58;;;;;;;11.93;5.70;;;17.90;99.90;;;;;;4960976;28;37516;-82
2022/10/17 13:04:25;;;;;;;7.35;5.75;;;17.90;99.90;;;;;;4969359;28;39752;-82
2022/10/17 13:06:56;;;;;;;8.32;4.45;;;17.90;99.90;;;;;;4970710;28;37015;-80
2022/10/17 13:09:29;;;;;;;8.55;4.50;;;17.90;99.90;;;;;;4989735;28;37372;-79
2022/10/17 13:11:59;;;;;;;8.40;4.47;;;17.80;99.90;;;;;;4971717;28;37786;-82
2022/10/17 13:14:26;;;;;;;7.32;4.05;;;17.80;99.90;;;;;;4974050;28;38255;-81
2022/10/17 13:16:56;;;;;;;8.02;4.00;;;17.70;99.90;;;;;;4969808;28;39673;-83
2022/10/17 13:19:25;;;;;;;6.80;3.47;;;17.80;99.90;;;;;;4977292;28;36749;-81
2022/10/17 13:21:57;;;;;;;10.07;4.00;;;17.80;99.90;;;;;;4973234;28;37884;-82
2022/10/17 13:24:41;;;;;;;5.28;3.25;;;17.80;99.90;;;;;;4970044;28;38455;-82
2022/10/17 13:27:35;;;;;;;7.25;3.17;;;17.80;99.90;;;;;;4989177;28;38355;-83
2022/10/17 13:30:19;;;;;;;6.40;3.00;;;17.80;99.90;;;;;;4971902;28;36488;-84
2022/10/17 13:32:46;;;;;;;4.25;2.35;;;17.90;99.90;;;;;;4984868;28;49011;-82
2022/10/17 13:35:16;;;;;;;9.88;3.22;;;17.90;99.90;;;;;;4992328;28;37931;-82
2022/10/17 13:37:45;;;;;;;4.93;2.50;;;17.90;99.90;;;;;;4974055;28;38594;-83
2022/10/17 13:40:29;;;;;;;6.72;2.83;;;18.00;99.90;;;;;;4975711;28;35978;-80
2022/10/17 13:42:57;;;;;;;7.25;2.53;;;18.00;99.90;;;;;;4968627;28;39608;-82
2022/10/17 13:45:26;;;;;;;3.42;2.40;;;18.00;99.90;;;;;;4972299;28;38592;-81
2022/10/17 13:47:53;;;;;;;6.63;2.38;;;18.00;99.90;;;;;;4986881;28;38831;-82
2022/10/17 13:50:24;;;;;;;5.78;2.42;;;18.00;99.90;;;;;;4962307;28;35983;-82
2022/10/17 13:53:23;;;;;;;6.57;2.30;;;18.10;99.90;;;;;;4971820;28;38696;-83
2022/10/17 13:56:13;;;;;;;4.70;2.25;;;18.10;99.90;;;;;;4971014;28;47981;-81